Time;durP1;ratioP1;P1;durP2;ratioP2;P2;SDS_P1;SDS_P2;PMS_P1;PMS_P2;Temp;Humidity;BMP_temperature;BMP_pressure;BME280_temperature;BME280_humidity;BME280_pressure;Samples;Min_cycle;Max_cycle;Signal;HPM_P1;HPM_P2
2022/05/14 00:01:18;;;;;;;16.00;9.37;;;;;;;17.35;74.87;99057.72;5071212;28;20176;-85
2022/05/14 00:03:44;;;;;;;15.20;9.87;;;;;;;16.08;74.62;98838.88;5068940;28;20653;-85
2022/05/14 00:06:13;;;;;;;13.40;9.73;;;;;;;14.97;75.29;98689.31;5052246;28;20247;-85
2022/05/14 00:08:39;;;;;;;14.77;10.60;;;;;;;16.23;74.69;98873.13;5051907;28;20170;-84
2022/05/14 00:13:50;;;;;;;18.57;10.60;;;;;;;16.17;75.24;98864.53;5052900;28;20555;-86
2022/05/14 00:16:17;;;;;;;14.10;10.40;;;;;;;14.19;75.54;98561.59;5050230;28;20600;-85
2022/05/14 00:18:43;;;;;;;17.10;11.17;;;;;;;14.09;74.76;98534.28;5051800;28;20185;-84
2022/05/14 00:21:10;;;;;;;17.10;10.77;;;;;;;14.32;74.25;98563.53;5051789;28;20954;-85
2022/05/14 00:23:35;;;;;;;17.40;11.60;;;;;;;13.76;74.29;98457.44;5051321;28;20162;-85
2022/05/14 00:26:00;;;;;;;18.83;11.87;;;;;;;14.96;74.25;98644.31;5052248;28;20259;-84
2022/05/14 00:28:26;;;;;;;20.07;12.40;;;;;;;17.05;73.96;99002.81;5055521;28;20166;-83
2022/05/14 00:30:52;;;;;;;18.87;12.93;;;;;;;16.10;74.26;98844.84;5055413;28;20189;-85
2022/05/14 00:33:17;;;;;;;18.53;11.47;;;;;;;16.08;74.43;98859.28;5055510;28;20162;-85
2022/05/14 00:35:43;;;;;;;18.67;11.63;;;;;;;13.93;74.31;98467.00;5056712;28;20166;-86
2022/05/14 00:38:09;;;;;;;19.40;11.83;;;;;;;13.68;75.45;98462.38;5055151;28;20214;-87
2022/05/14 00:40:42;;;;;;;16.43;10.90;;;;;;;14.61;76.20;98586.88;5055493;28;20240;-85
2022/05/14 00:43:09;;;;;;;15.87;11.60;;;;;;;14.38;76.77;98560.22;5055248;28;20162;-85
2022/05/14 00:45:41;;;;;;;17.00;12.93;;;;;;;15.38;76.79;98737.53;5055328;28;20655;-85
2022/05/14 00:48:11;;;;;;;16.60;11.87;;;;;;;15.34;76.99;98745.13;5053914;28;20307;-85
2022/05/14 00:50:42;;;;;;;16.83;11.80;;;;;;;17.53;76.42;99074.16;5055115;28;20185;-85
2022/05/14 00:53:16;;;;;;;17.93;11.70;;;;;;;14.24;75.94;98536.19;5055363;28;20160;-85
2022/05/14 00:55:44;;;;;;;20.27;12.20;;;;;;;14.10;77.94;98551.25;5055384;28;20274;-85
2022/05/14 00:58:16;;;;;;;20.30;12.80;;;;;;;13.23;78.53;98444.66;5056094;28;20166;-86
2022/05/14 01:00:42;;;;;;;20.63;12.83;;;;;;;14.62;78.39;98665.88;5055088;28;20162;-85
2022/05/14 01:03:07;;;;;;;18.93;12.77;;;;;;;13.80;78.08;98543.13;5055111;28;20216;-86
2022/05/14 01:05:33;;;;;;;17.87;12.67;;;;;;;17.04;78.54;99100.84;5061997;28;20160;-85
2022/05/14 01:08:02;;;;;;;18.57;12.70;;;;;;;15.72;78.41;98878.38;5045076;28;20169;-84
2022/05/14 01:10:33;;;;;;;19.90;12.57;;;;;;;15.19;78.49;98783.13;5053913;28;20267;-85
2022/05/14 01:13:01;;;;;;;24.37;12.37;;;;;;;13.54;78.43;98513.00;5053579;28;20176;-85
2022/05/14 01:15:45;;;;;;;19.00;12.70;;;;;;;16.82;79.23;99091.16;5054891;28;20165;-84
2022/05/14 01:18:11;;;;;;;16.43;12.70;;;;;;;12.76;81.23;98435.25;5054648;28;20164;-84
2022/05/14 01:20:38;;;;;;;16.83;12.73;;;;;;;14.72;80.95;98746.69;5055079;28;20172;-84
2022/05/14 01:26:27;;;;;;;18.20;12.13;;;;;;;16.71;80.91;99077.38;5053739;28;20638;-84
2022/05/14 01:26:29;;;;;;;17.60;12.20;;;;;;;14.08;80.34;98629.28;5054491;28;20283;-85
2022/05/14 01:28:59;;;;;;;18.07;12.23;;;;;;;16.39;80.88;99023.22;5053083;28;20177;-84
2022/05/14 01:31:27;;;;;;;18.67;12.23;;;;;;;16.46;80.60;99053.13;5053063;28;20200;-85
2022/05/14 01:33:53;;;;;;;18.77;12.50;;;;;;;13.69;80.41;98567.50;5057735;28;20175;-84
2022/05/14 01:36:19;;;;;;;22.77;12.73;;;;;;;15.76;81.58;98926.09;5073168;28;20172;-84
2022/05/14 01:38:44;;;;;;;17.30;12.17;;;;;;;13.78;82.31;98609.25;5071147;28;20176;-85
2022/05/14 01:41:10;;;;;;;17.83;12.63;;;;;;;14.03;82.85;98656.34;5074073;28;20169;-85
2022/05/14 01:43:35;;;;;;;16.53;12.80;;;;;;;13.69;84.22;98624.31;5074336;28;20160;-85
2022/05/14 01:46:01;;;;;;;17.93;12.77;;;;;;;13.26;84.83;98543.84;5073837;28;20271;-84
2022/05/14 01:48:26;;;;;;;16.47;12.80;;;;;;;15.47;84.96;98923.88;5073467;28;20177;-84
2022/05/14 01:50:52;;;;;;;17.87;12.37;;;;;;;12.12;84.91;98357.81;5073657;28;20173;-85
2022/05/14 01:53:17;;;;;;;17.77;12.30;;;;;;;15.30;85.32;98941.41;5073450;28;20169;-84
2022/05/14 01:55:43;;;;;;;16.53;12.10;;;;;;;12.98;84.29;98518.69;5053593;28;20165;-85
2022/05/14 02:01:22;;;;;;;15.97;11.90;;;;;;;12.58;82.56;98397.66;5011561;28;20557;-87
2022/05/14 02:03:50;;;;;;;15.33;12.10;;;;;;;16.46;82.95;99073.56;5011485;28;20195;-84
2022/05/14 02:06:17;;;;;;;17.20;12.33;;;;;;;14.54;82.99;98756.59;4995098;28;20206;-85
2022/05/14 02:08:43;;;;;;;15.47;12.17;;;;;;;16.43;82.91;99090.53;5011591;28;20170;-87
2022/05/14 02:11:09;;;;;;;16.70;12.70;;;;;;;14.76;83.09;98822.38;5017844;28;20196;-85
2022/05/14 02:13:36;;;;;;;16.73;12.83;;;;;;;14.63;83.11;98768.63;5031183;28;20559;-85
2022/05/14 02:16:02;;;;;;;18.73;13.10;;;;;;;13.40;83.25;98588.19;5031994;28;20159;-85
2022/05/14 02:18:28;;;;;;;18.73;12.73;;;;;;;12.26;83.73;98450.31;5031143;28;20575;-85
2022/05/14 02:20:53;;;;;;;19.40;13.10;;;;;;;14.94;84.86;98862.63;5030401;28;20219;-86
2022/05/14 02:23:19;;;;;;;16.83;12.63;;;;;;;15.87;84.50;99031.78;5030951;28;20200;-84
2022/05/14 02:25:44;;;;;;;17.33;12.67;;;;;;;14.78;85.04;98852.97;5030924;28;20625;-85
2022/05/14 02:28:10;;;;;;;19.23;12.50;;;;;;;13.99;84.88;98713.94;5031314;28;20154;-84
2022/05/14 02:30:35;;;;;;;19.37;12.80;;;;;;;13.25;84.18;98548.88;5030952;28;20189;-84
2022/05/14 02:33:01;;;;;;;17.60;12.33;;;;;;;12.20;83.28;98371.53;5031840;28;20670;-84
2022/05/14 02:35:27;;;;;;;16.20;12.43;;;;;;;13.74;82.12;98639.66;5031178;28;20188;-84
2022/05/14 02:37:53;;;;;;;15.17;12.53;;;;;;;12.63;82.55;98429.09;5073441;28;20171;-84
2022/05/14 02:40:18;;;;;;;18.50;12.77;;;;;;;14.38;83.52;98772.44;5074055;28;20589;-85
2022/05/14 02:42:44;;;;;;;18.10;12.33;;;;;;;14.88;83.32;98842.13;5073301;28;20654;-84
2022/05/14 02:45:10;;;;;;;15.93;12.37;;;;;;;15.65;83.45;98968.44;5071566;28;20176;-85
2022/05/14 02:47:35;;;;;;;16.97;12.20;;;;;;;13.90;83.13;98692.56;5072505;28;20253;-85
2022/05/14 02:50:01;;;;;;;20.47;12.57;;;;;;;12.55;83.59;98424.69;5054893;28;20174;-85
2022/05/14 02:52:26;;;;;;;18.63;12.47;;;;;;;13.69;82.90;98651.44;5045246;28;20181;-85
2022/05/14 02:54:52;;;;;;;17.90;12.70;;;;;;;14.10;82.80;98716.69;5053082;28;20165;-84
2022/05/14 02:57:17;;;;;;;19.87;13.00;;;;;;;14.91;82.56;98843.84;5053006;28;20235;-87
2022/05/14 02:59:43;;;;;;;15.37;11.87;;;;;;;13.63;83.08;98629.28;5052420;28;20204;-85
2022/05/14 03:02:09;;;;;;;15.13;11.30;;;;;;;13.51;81.17;98619.72;5052726;28;20169;-85
2022/05/14 03:04:37;;;;;;;16.57;11.43;;;;;;;15.94;83.29;99012.28;5052733;28;20549;-83
2022/05/14 03:07:06;;;;;;;20.10;11.83;;;;;;;14.68;81.64;98788.25;5053639;28;20649;-84
2022/05/14 03:09:32;;;;;;;26.70;12.27;;;;;;;13.72;82.35;98643.88;5052949;28;20153;-86
2022/05/14 03:11:58;;;;;;;19.87;12.20;;;;;;;13.74;81.73;98624.41;5052270;28;20618;-84
2022/05/14 03:14:23;;;;;;;21.53;12.13;;;;;;;16.31;81.45;99088.69;5052233;28;20226;-86
2022/05/14 03:16:49;;;;;;;17.33;11.87;;;;;;;14.93;81.81;98877.88;5051926;28;20240;-85
2022/05/14 03:19:14;;;;;;;15.13;11.50;;;;;;;16.08;81.08;99009.94;5052159;28;20184;-85
2022/05/14 03:21:41;;;;;;;16.20;11.60;;;;;;;16.39;80.99;99063.25;5053454;28;20217;-84
2022/05/14 03:24:07;;;;;;;18.33;11.57;;;;;;;14.54;80.13;98742.97;5051904;28;20546;-85
2022/05/14 03:26:33;;;;;;;15.17;11.77;;;;;;;14.87;79.68;98807.25;5051806;28;20181;-87
2022/05/14 03:28:59;;;;;;;14.77;10.83;;;;;;;16.40;79.88;99063.25;5050520;28;20201;-84
2022/05/14 03:31:25;;;;;;;17.47;11.57;;;;;;;14.48;78.73;98745.41;5051633;28;20173;-84
2022/05/14 03:33:50;;;;;;;19.00;12.20;;;;;;;13.39;78.07;98566.13;5052153;28;20197;-84
2022/05/14 03:36:16;;;;;;;15.03;11.13;;;;;;;16.27;77.98;99032.38;5054036;28;20169;-86
2022/05/14 03:38:42;;;;;;;16.00;10.40;;;;;;;12.81;78.18;98462.47;5051085;28;20170;-84
2022/05/14 03:41:08;;;;;;;20.87;11.57;;;;;;;14.17;79.38;98716.81;5052543;28;20524;-86
2022/05/14 03:43:33;;;;;;;16.63;10.83;;;;;;;13.47;79.33;98599.31;5052876;28;20161;-86
2022/05/14 03:45:59;;;;;;;16.73;11.50;;;;;;;14.56;78.57;98772.75;5052121;28;20193;-85
2022/05/14 03:48:25;;;;;;;13.73;10.90;;;;;;;12.88;79.03;98483.78;5052210;28;20546;-85
2022/05/14 03:50:52;;;;;;;16.70;11.30;;;;;;;14.56;78.56;98765.09;5053602;28;20177;-86
2022/05/14 03:53:18;;;;;;;14.90;11.97;;;;;;;13.94;77.60;98635.81;5052617;28;20161;-86
2022/05/14 03:55:44;;;;;;;22.93;12.20;;;;;;;12.27;77.12;98335.31;5051996;28;20168;-85
2022/05/14 03:58:09;;;;;;;17.33;11.73;;;;;;;13.56;76.41;98552.03;5057147;28;20256;-86
2022/05/14 04:00:35;;;;;;;19.07;13.60;;;;;;;16.93;76.34;99107.50;5070818;28;20625;-85
2022/05/14 04:03:02;;;;;;;15.53;11.20;;;;;;;14.12;75.09;98641.22;5071755;28;20157;-85
2022/05/14 04:05:27;;;;;;;16.20;11.30;;;;;;;15.12;74.62;98798.31;5071556;28;20157;-84
2022/05/14 04:07:53;;;;;;;16.03;11.47;;;;;;;14.44;74.77;98665.59;5071783;28;20167;-84
2022/05/14 04:10:20;;;;;;;17.53;11.70;;;;;;;13.05;75.93;98443.44;5071952;28;20275;-85
2022/05/14 04:12:45;;;;;;;22.03;11.43;;;;;;;15.65;75.27;98876.56;5069115;28;20172;-84
2022/05/14 04:15:13;;;;;;;14.50;11.60;;;;;;;13.44;74.74;98489.94;5051476;28;20244;-86
2022/05/14 04:17:38;;;;;;;18.90;12.70;;;;;;;16.64;74.21;99019.34;5050250;28;20169;-85
2022/05/14 04:20:05;;;;;;;20.60;14.33;;;;;;;13.79;75.31;98589.75;5050239;28;20169;-85
2022/05/14 04:22:31;;;;;;;21.13;13.80;;;;;;;15.02;75.29;98799.88;5051320;28;20221;-85
2022/05/14 04:24:56;;;;;;;17.97;12.00;;;;;;;15.01;75.48;98790.50;5049971;28;20186;-86
2022/05/14 04:27:22;;;;;;;21.70;12.67;;;;;;;14.76;74.70;98719.59;5050530;28;20205;-87
2022/05/14 04:29:47;;;;;;;41.27;13.63;;;;;;;14.36;74.22;98648.47;5069618;28;20194;-87
2022/05/14 04:32:13;;;;;;;18.07;12.77;;;;;;;14.33;74.16;98636.53;5072044;28;20218;-83
2022/05/14 04:34:38;;;;;;;133.50;18.17;;;;;;;14.93;74.34;98702.00;5071576;28;20227;-83
2022/05/14 04:37:04;;;;;;;19.93;12.30;;;;;;;15.32;72.97;98735.75;5070949;28;20165;-83
2022/05/14 04:39:32;;;;;;;17.57;12.83;;;;;;;16.72;72.96;98942.75;5070513;28;20267;-84
2022/05/14 04:42:03;;;;;;;18.87;12.93;;;;;;;17.27;71.27;98992.81;5071398;28;20165;-85
2022/05/14 04:44:30;;;;;;;22.30;12.87;;;;;;;17.04;71.08;98951.63;5071461;28;20640;-85
2022/05/14 04:46:56;;;;;;;18.47;12.43;;;;;;;17.48;71.45;99018.63;5071320;28;20185;-85
2022/05/14 04:49:22;;;;;;;16.07;12.53;;;;;;;17.62;70.82;99017.09;5071696;28;20165;-86
2022/05/14 04:51:47;;;;;;;16.53;12.70;;;;;;;16.97;70.06;98904.69;5071262;28;20223;-84
2022/05/14 04:54:13;;;;;;;17.23;12.83;;;;;;;16.34;71.06;98799.19;5070938;28;20584;-85
2022/05/14 04:56:38;;;;;;;17.97;12.70;;;;;;;15.78;70.62;98684.50;5057389;28;20200;-85
2022/05/14 04:59:04;;;;;;;22.00;13.40;;;;;;;18.03;69.63;99051.59;5051974;28;20231;-83
2022/05/14 05:01:29;;;;;;;23.90;13.00;;;;;;;17.73;69.36;98984.75;5049415;28;20177;-84
2022/05/14 05:03:55;;;;;;;14.70;11.27;;;;;;;17.36;68.21;98936.63;5050312;28;20181;-83
2022/05/14 05:06:23;;;;;;;20.17;11.70;;;;;;;18.44;67.63;99135.63;5051255;28;20620;-84
2022/05/14 05:08:51;;;;;;;16.00;11.20;;;;;;;14.32;69.62;98522.78;5051299;28;20626;-84
2022/05/14 05:11:18;;;;;;;14.13;10.67;;;;;;;17.15;66.82;98910.81;5052145;28;20181;-84
2022/05/14 05:13:43;;;;;;;17.57;12.10;;;;;;;16.60;68.30;98792.66;5053835;28;20241;-84
2022/05/14 05:16:09;;;;;;;18.47;12.73;;;;;;;16.40;68.24;98713.22;5054473;28;20166;-84
2022/05/14 05:18:35;;;;;;;23.57;12.27;;;;;;;18.15;67.68;98974.84;5055110;28;20173;-84
2022/05/14 05:21:01;;;;;;;14.83;12.20;;;;;;;17.71;67.43;98925.00;5054131;28;20244;-84
2022/05/14 05:23:27;;;;;;;16.33;11.90;;;;;;;19.10;66.67;99141.25;5054557;28;20179;-84
2022/05/14 05:25:53;;;;;;;15.93;10.60;;;;;;;15.85;65.61;98626.69;5054209;28;20189;-84
2022/05/14 05:28:19;;;;;;;14.37;10.30;;;;;;;16.52;65.78;98709.94;5055914;28;20248;-84
2022/05/14 05:30:46;;;;;;;16.87;10.13;;;;;;;18.85;64.36;99027.41;5070715;28;20176;-83
2022/05/14 05:33:14;;;;;;;12.93;10.63;;;;;;;18.66;63.87;99038.41;5074749;28;20168;-84
2022/05/14 05:35:39;;;;;;;13.27;9.60;;;;;;;16.54;63.68;98713.38;5074694;28;20310;-84
2022/05/14 05:38:05;;;;;;;16.63;10.33;;;;;;;18.89;63.25;99020.56;5075866;28;20206;-85
2022/05/14 05:40:30;;;;;;;14.47;10.60;;;;;;;19.03;62.98;99021.50;5075492;28;20160;-85
2022/05/14 05:42:56;;;;;;;17.57;10.63;;;;;;;18.35;61.73;98867.31;5074296;28;20164;-83
2022/05/14 05:45:21;;;;;;;15.50;10.10;;;;;;;17.80;60.72;98721.94;5073996;28;20156;-86
2022/05/14 05:47:47;;;;;;;11.87;9.90;;;;;;;18.28;60.55;98814.31;5072590;28;20196;-85
2022/05/14 05:50:13;;;;;;;11.67;9.80;;;;;;;18.93;63.83;99027.41;5074736;28;20153;-85
2022/05/14 05:52:38;;;;;;;12.13;10.50;;;;;;;17.46;62.43;98734.53;5074498;28;20217;-84
2022/05/14 05:57:49;;;;;;;12.23;9.40;;;;;;;20.95;57.76;99110.78;5073739;28;20195;-85
2022/05/14 06:00:23;;;;;;;11.57;9.20;;;;;;;20.63;56.66;98989.09;5071671;28;20713;-85
2022/05/14 06:02:49;;;;;;;12.07;8.70;;;;;;;20.38;55.88;98914.56;5072021;28;20173;-84
2022/05/14 06:05:15;;;;;;;12.37;9.03;;;;;;;19.48;54.86;98722.09;5072280;28;20175;-84
2022/05/14 06:07:42;;;;;;;12.20;8.67;;;;;;;20.96;54.52;98970.91;5072153;28;20295;-85
2022/05/14 06:10:11;;;;;;;10.60;8.23;;;;;;;20.34;54.56;98887.16;5073160;28;20172;-86
2022/05/14 06:12:38;;;;;;;10.37;8.27;;;;;;;21.27;53.72;99024.00;5073181;28;20705;-83
2022/05/14 06:15:09;;;;;;;11.33;7.90;;;;;;;21.35;52.11;98950.13;5073196;28;20244;-84
2022/05/14 06:17:34;;;;;;;11.47;8.23;;;;;;;20.31;52.81;98797.19;5073132;28;20163;-84
2022/05/14 06:20:00;;;;;;;12.77;8.67;;;;;;;22.42;51.73;99095.41;5073127;28;20172;-84
2022/05/14 06:22:25;;;;;;;10.93;8.53;;;;;;;21.55;51.91;98968.88;5078924;28;20235;-83
2022/05/14 06:24:50;;;;;;;9.43;8.10;;;;;;;22.69;50.17;99051.28;5077252;28;20540;-84
2022/05/14 06:27:16;;;;;;;13.07;8.33;;;;;;;21.15;49.05;98725.44;5072805;28;20189;-84
2022/05/14 06:29:41;;;;;;;11.10;8.50;;;;;;;21.87;50.29;98908.53;5072586;28;20635;-84
2022/05/14 06:32:07;;;;;;;9.33;8.37;;;;;;;21.63;51.92;99007.47;5031536;28;20166;-84
2022/05/14 06:34:32;;;;;;;9.13;8.10;;;;;;;22.57;52.17;99123.66;5033546;28;20185;-85
2022/05/14 06:36:58;;;;;;;11.33;8.10;;;;;;;21.65;51.54;98871.75;5032155;28;20212;-84
2022/05/14 06:39:23;;;;;;;13.23;8.70;;;;;;;23.31;50.49;99088.47;5044902;28;20176;-85
2022/05/14 06:41:49;;;;;;;10.70;8.10;;;;;;;23.60;50.91;99153.59;5052774;28;20614;-84
2022/05/14 06:44:14;;;;;;;12.67;8.40;;;;;;;22.43;50.54;98959.53;5052990;28;20645;-85
2022/05/14 06:46:40;;;;;;;11.67;8.70;;;;;;;23.39;50.94;99131.47;5052734;28;20331;-85
2022/05/14 06:49:05;;;;;;;11.67;8.87;;;;;;;21.75;50.06;98830.41;5053244;28;20161;-85
2022/05/14 06:51:32;;;;;;;11.20;9.30;;;;;;;22.54;51.65;99038.53;5069349;28;20173;-85
2022/05/14 06:54:05;;;;;;;11.77;8.90;;;;;;;23.19;51.69;99145.44;5072524;28;20298;-84
2022/05/14 06:56:33;;;;;;;11.83;9.37;;;;;;;22.16;53.14;99038.03;5072818;28;20154;-84
2022/05/14 06:59:00;;;;;;;13.30;9.43;;;;;;;20.81;53.76;98850.06;5074202;28;20580;-83
2022/05/14 07:01:26;;;;;;;11.67;8.70;;;;;;;23.74;51.80;99151.69;5072538;28;20168;-84
2022/05/14 07:06:43;;;;;;;13.37;9.00;;;;;;;21.03;52.29;98751.25;5072286;28;20196;-85
2022/05/14 07:09:17;;;;;;;12.47;8.90;;;;;;;23.90;50.74;99157.50;5072325;28;20252;-84
2022/05/14 07:11:46;;;;;;;10.67;9.10;;;;;;;22.82;48.78;98867.03;5032374;28;20172;-84
2022/05/14 07:14:13;;;;;;;12.10;9.17;;;;;;;24.02;48.89;99144.41;5032413;28;20162;-84
2022/05/14 07:16:39;;;;;;;12.73;9.20;;;;;;;22.42;51.05;98938.03;5034812;28;20225;-86
2022/05/14 07:19:06;;;;;;;12.00;9.30;;;;;;;24.33;49.69;99152.59;5033383;28;20211;-88
2022/05/14 07:21:37;;;;;;;16.13;9.40;;;;;;;24.01;49.09;99050.44;5031511;28;20298;-87
2022/05/14 07:24:07;;;;;;;11.57;9.47;;;;;;;24.57;48.11;99080.56;5031687;28;20170;-86
2022/05/14 07:26:37;;;;;;;11.60;9.50;;;;;;;24.56;47.22;99044.34;5031943;28;20251;-89
2022/05/14 07:29:12;;;;;;;13.30;10.10;;;;;;;21.78;47.73;98621.66;5032712;28;21004;-88
2022/05/14 07:31:39;;;;;;;13.40;9.73;;;;;;;24.29;47.79;98972.38;5035868;28;20611;-89
2022/05/14 07:34:06;;;;;;;13.20;10.03;;;;;;;26.42;45.52;99144.16;5045932;28;20423;-89
2022/05/14 07:36:36;;;;;;;10.77;9.27;;;;;;;26.49;44.52;99152.66;5044845;28;20264;-89
2022/05/14 07:39:04;;;;;;;14.87;9.80;;;;;;;24.17;44.80;98748.44;5054002;28;20165;-90
2022/05/14 07:41:32;;;;;;;14.87;10.50;;;;;;;24.64;45.55;98902.66;5052039;28;20162;-88
2022/05/14 07:44:01;;;;;;;16.23;9.97;;;;;;;22.68;45.03;98623.78;5050089;28;20173;-89
2022/05/14 07:46:34;;;;;;;11.37;9.00;;;;;;;23.33;44.83;98749.16;5057344;28;20753;-88
2022/05/14 07:49:02;;;;;;;11.07;8.60;;;;;;;26.46;44.23;99176.09;5056832;28;20688;-89
2022/05/14 07:51:28;;;;;;;12.50;8.77;;;;;;;23.75;43.66;98824.22;5068451;28;20177;-90
2022/05/14 07:53:54;;;;;;;11.83;8.27;;;;;;;22.47;44.03;98595.72;5077918;28;20525;-90
2022/05/14 07:56:20;;;;;;;11.13;7.87;;;;;;;25.13;42.42;98999.22;5064294;28;20150;-89
2022/05/14 07:58:46;;;;;;;9.17;7.67;;;;;;;24.22;42.81;98903.53;5064027;28;20181;-90
2022/05/14 08:01:12;;;;;;;12.83;8.63;;;;;;;24.04;41.92;98840.88;5083487;28;20263;-91
2022/05/14 08:03:38;;;;;;;13.27;9.17;;;;;;;22.88;41.79;98593.28;5077849;28;20255;-90
2022/05/14 08:06:04;;;;;;;15.30;9.00;;;;;;;23.03;41.75;98628.31;5083583;28;20200;-90
2022/05/14 08:08:30;;;;;;;14.60;9.20;;;;;;;23.19;42.25;98706.34;5088903;28;20164;-90
2022/05/14 08:10:56;;;;;;;12.60;8.93;;;;;;;22.46;42.76;98637.91;5049072;28;20672;-90
2022/05/14 08:13:23;;;;;;;11.67;8.77;;;;;;;22.87;43.36;98714.66;5053057;28;20166;-89
2022/05/14 08:15:51;;;;;;;12.93;8.93;;;;;;;22.42;44.10;98669.75;5052282;28;20606;-92
2022/05/14 08:18:17;;;;;;;28.17;10.10;;;;;;;22.74;42.96;98644.31;5045508;28;20170;-91
2022/05/14 08:20:50;;;;;;;41.20;11.77;;;;;;;22.91;43.12;98672.41;5069133;28;20215;-90
2022/05/14 08:26:01;;;;;;;11.80;8.97;;;;;;;24.35;44.03;98974.88;5087770;28;20223;-89
2022/05/14 08:28:30;;;;;;;13.83;9.80;;;;;;;22.90;43.54;98724.94;5087763;28;20165;-89
2022/05/14 08:30:56;;;;;;;13.47;10.57;;;;;;;24.43;43.86;98940.19;5087328;28;20180;-91
2022/05/14 08:33:22;;;;;;;13.87;10.90;;;;;;;24.84;44.02;99060.25;5077224;28;20175;-90
2022/05/14 08:35:48;;;;;;;12.87;9.80;;;;;;;22.59;44.68;98719.38;5074269;28;20625;-91
2022/05/14 08:38:23;;;;;;;19.93;9.30;;;;;;;22.46;44.19;98702.38;5078678;28;20223;-91
2022/05/14 08:40:59;;;;;;;18.60;9.40;;;;;;;22.50;44.63;98703.16;5076763;28;20182;-91
2022/05/14 08:43:32;;;;;;;18.93;9.77;;;;;;;22.74;44.74;98781.09;5077078;28;20215;-90
2022/05/14 08:45:59;;;;;;;20.17;9.60;;;;;;;24.52;45.19;99053.94;5077792;28;20208;-91
2022/05/14 08:48:30;;;;;;;15.27;9.53;;;;;;;24.52;45.57;99091.91;5075986;28;20168;-91
2022/05/14 08:51:03;;;;;;;17.47;9.57;;;;;;;22.43;45.72;98699.84;5079372;28;20544;-90
2022/05/14 08:53:32;;;;;;;18.80;9.00;;;;;;;23.57;45.75;98935.69;5081943;28;20161;-91
2022/05/14 08:56:21;;;;;;;16.80;8.97;;;;;;;23.46;47.31;98939.28;5084641;28;20226;-90
2022/05/14 08:59:05;;;;;;;12.10;8.83;;;;;;;25.12;47.62;99279.94;5081903;28;20587;-90
2022/05/14 09:01:35;;;;;;;13.73;7.77;;;;;;;21.65;47.12;98787.59;5057852;28;20257;-90
2022/05/14 09:04:01;;;;;;;12.70;8.43;;;;;;;22.63;46.03;98943.00;5043761;28;20177;-89
2022/05/14 09:06:27;;;;;;;9.57;7.40;;;;;;;24.75;45.79;99296.88;5039964;28;20252;-89
2022/05/14 09:08:52;;;;;;;17.17;8.33;;;;;;;21.84;45.47;98810.63;5039570;28;20166;-90
2022/05/14 09:11:25;;;;;;;11.97;8.13;;;;;;;22.94;45.14;98987.34;5039530;28;20166;-91
2022/05/14 09:13:57;;;;;;;10.63;7.90;;;;;;;21.09;45.07;98674.03;5039683;28;20166;-89
2022/05/14 09:16:36;;;;;;;14.73;8.50;;;;;;;21.55;44.89;98770.53;5041778;28;20166;-90
2022/05/14 09:19:16;;;;;;;12.80;8.53;;;;;;;21.52;45.63;98788.59;5042800;28;20180;-90
2022/05/14 09:21:57;;;;;;;17.03;10.53;;;;;;;21.86;46.69;98881.03;5042614;28;20218;-89
2022/05/14 09:24:30;;;;;;;14.57;8.60;;;;;;;20.92;47.77;98768.50;5044320;28;20174;-89
2022/05/14 09:27:12;;;;;;;22.07;10.00;;;;;;;22.80;48.62;99139.81;5038297;28;20233;-89
2022/05/14 09:29:42;;;;;;;17.93;10.50;;;;;;;23.95;49.06;99327.25;5047726;28;20173;-89
2022/05/14 09:32:16;;;;;;;15.57;9.33;;;;;;;22.99;49.48;99194.69;5065551;28;20169;-89
2022/05/14 09:34:42;;;;;;;15.07;9.00;;;;;;;23.49;50.40;99346.69;5074742;28;20164;-88
2022/05/14 09:37:11;;;;;;;22.87;10.17;;;;;;;20.26;50.37;98770.66;5072591;28;20193;-90
2022/05/14 09:39:38;;;;;;;17.10;11.17;;;;;;;22.25;50.28;99111.00;5083142;28;20196;-90
2022/05/14 09:42:04;;;;;;;58.93;35.90;;;;;;;21.03;52.31;98976.03;5082543;28;20168;-90
2022/05/14 09:44:52;;;;;;;66.40;40.07;;;;;;;21.08;55.38;99068.72;5077981;28;20165;-90
2022/05/14 09:47:38;;;;;;;48.67;30.63;;;;;;;21.78;56.41;99198.91;5079864;28;20226;-89
2022/05/14 09:50:07;;;;;;;37.47;26.33;;;;;;;22.18;57.90;99312.22;5079358;28;20169;-91
2022/05/14 09:52:36;;;;;;;52.77;33.07;;;;;;;18.62;58.23;98710.22;5079968;28;20596;-90
2022/05/14 09:55:08;;;;;;;27.43;18.20;;;;;;;19.66;62.69;99004.56;5082908;28;20160;-91
2022/05/14 09:57:55;;;;;;;31.87;18.87;;;;;;;21.13;67.04;99301.25;5078255;28;20238;-90
2022/05/14 10:00:31;;;;;;;14.83;11.00;;;;;;;18.09;68.35;98810.84;5068585;28;20170;-91
2022/05/14 10:03:21;;;;;;;14.43;9.97;;;;;;;21.26;67.11;99294.41;5052607;28;20633;-90
2022/05/14 10:06:15;;;;;;;12.80;9.50;;;;;;;19.74;66.40;98970.31;5060529;28;20173;-90
2022/05/14 10:08:41;;;;;;;14.27;9.03;;;;;;;21.54;67.94;99288.34;4984375;28;20229;-90
2022/05/14 10:11:25;;;;;;;11.13;8.60;;;;;;;21.60;67.23;99288.31;4983800;28;20195;-90
2022/05/14 10:14:13;;;;;;;15.83;8.83;;;;;;;21.57;65.58;99281.47;4987790;28;20299;-91
2022/05/14 10:17:02;;;;;;;12.20;8.77;;;;;;;20.62;67.16;99123.69;4986916;28;20168;-90
2022/05/14 10:19:49;;;;;;;13.93;9.37;;;;;;;21.37;69.25;99262.59;4987347;28;20191;-90
2022/05/14 10:28:43;;;;;;;10.47;7.10;;;;;;;17.69;68.43;98616.91;5005945;28;20182;-91
2022/05/14 10:31:20;;;;;;;12.07;7.80;;;;;;;21.75;69.11;99267.69;4996268;28;20256;-91
2022/05/14 10:33:48;;;;;;;7.97;6.97;;;;;;;17.86;68.44;98627.19;5005530;28;20198;-90
2022/05/14 10:36:17;;;;;;;7.40;5.77;;;;;;;22.17;66.55;99297.59;5005116;28;20225;-90
2022/05/14 10:38:50;;;;;;;11.23;5.77;;;;;;;22.45;65.87;99332.72;5004739;28;20321;-90
2022/05/14 10:41:28;;;;;;;6.97;5.60;;;;;;;22.84;63.86;99303.28;5004483;28;20419;-90
2022/05/14 10:44:07;;;;;;;6.80;4.90;;;;;;;19.56;61.52;98715.25;5005150;28;20170;-90
2022/05/14 10:46:35;;;;;;;6.00;4.90;;;;;;;20.34;60.38;98763.75;5073073;28;20276;-90
2022/05/14 10:49:26;;;;;;;8.80;4.70;;;;;;;23.95;56.57;99334.16;5079991;28;20272;-90
2022/05/14 10:51:53;;;;;;;6.90;4.77;;;;;;;22.24;54.28;98977.78;5059472;28;20645;-90
2022/05/14 10:54:24;;;;;;;9.70;5.73;;;;;;;20.73;53.33;98664.91;5079353;28;20240;-90
2022/05/14 10:57:20;;;;;;;9.83;5.60;;;;;;;20.62;54.72;98646.13;5064051;28;20189;-90
2022/05/14 10:59:49;;;;;;;7.93;5.37;;;;;;;23.35;60.09;99322.66;5058715;28;20209;-89
2022/05/14 11:02:25;;;;;;;11.47;6.50;;;;;;;21.39;63.11;98981.88;5020939;28;20174;-90
2022/05/14 11:04:51;;;;;;;9.63;5.43;;;;;;;19.74;62.56;98713.47;5038306;28;20201;-91
2022/05/14 11:07:42;;;;;;;8.27;5.47;;;;;;;22.26;65.41;99179.78;5040140;28;20239;-92
2022/05/14 11:10:32;;;;;;;8.77;5.23;;;;;;;19.67;64.87;98716.03;5024500;28;20735;-89
2022/05/14 11:13:21;;;;;;;8.83;6.20;;;;;;;18.73;66.07;98626.44;5029884;28;20170;-91
2022/05/14 11:15:59;;;;;;;9.70;6.83;;;;;;;23.03;66.30;99316.91;5045499;28;20269;-92
2022/05/14 11:18:25;;;;;;;8.70;5.90;;;;;;;19.79;64.71;98795.63;5027809;28;20170;-90
2022/05/14 11:21:00;;;;;;;8.07;6.80;;;;;;;19.45;64.83;98681.88;5027277;28;20172;-91
2022/05/14 11:23:26;;;;;;;9.17;7.00;;;;;;;20.44;62.32;98772.25;5028324;28;20204;-92
2022/05/14 11:26:09;;;;;;;10.70;6.10;;;;;;;23.93;58.58;99291.94;5029464;28;20216;-91
2022/05/14 11:28:36;;;;;;;9.63;6.83;;;;;;;20.67;58.81;98803.84;5061258;28;20211;-91
2022/05/14 11:31:14;;;;;;;16.00;7.20;;;;;;;21.22;59.82;98938.22;5078855;28;20168;-91
2022/05/14 11:33:41;;;;;;;8.97;6.77;;;;;;;19.06;62.18;98717.88;5087022;28;20179;-92
2022/05/14 11:36:12;;;;;;;11.10;8.37;;;;;;;22.47;64.01;99278.56;5068600;28;20248;-92
2022/05/14 11:38:43;;;;;;;10.23;7.43;;;;;;;19.05;64.37;98737.56;5085760;28;20269;-92
2022/05/14 11:41:12;;;;;;;13.47;8.03;;;;;;;18.98;64.51;98684.53;5070033;28;20169;-91
2022/05/14 11:43:44;;;;;;;9.80;7.93;;;;;;;22.28;67.84;99270.03;5052218;28;20674;-92
2022/05/14 11:46:27;;;;;;;10.20;8.37;;;;;;;23.37;64.35;99272.75;5073761;28;20215;-92
2022/05/14 11:49:21;;;;;;;10.77;8.10;;;;;;;23.24;59.30;99045.53;5068883;28;20207;-92
2022/05/14 11:51:56;;;;;;;12.03;9.13;;;;;;;24.98;57.87;99258.56;5071291;28;20165;-91